METAR Reports for Virginia

 

KIAD - Wash DC/Dulles, Virginia, USA
Distance from station: NNW 8mi, 13km
Updated: Wed, 17-Jan-2018 9:52am EST
Overcast
Overcast
 Wind from NNW
Wind: NNW 16 mph , 26 km/h
Temperature: 21°F , -6°C
Wind Chill: 7°F , -14°C
Dew Point: 10°F , -12°C
Humidity: 63%
Barometer: 30.42 inHg , 1030.1 hPa
Clouds: Overcast
Visibility: 10 miles , 16 km
Cloud details: Overcast 7000 ft
2018/01/17 14:52 KIAD 171452Z 34014KT 10SM OVC070 M06/M12 A3042 RMK AO2 SLP305 60000 T10561117 53011
KHEF - Manassas Muni, Virginia, USA
Distance from station: SW 9mi, 14km
Updated: Wed, 17-Jan-2018 9:56am EST
Overcast
Overcast
 Wind from N
Wind: N 14 mph , 22 km/h
Temperature: 23°F , -5°C
Wind Chill: 11°F , -12°C
Dew Point: 12°F , -11°C
Humidity: 63%
Barometer: 30.43 inHg , 1030.5 hPa
Clouds: Overcast
Visibility: 10 miles , 16 km
Cloud details: Overcast 6000 ft
2018/01/17 14:56 KHEF 171456Z 35012KT 10SM OVC060 M05/M11 A3043 RMK AO2 SLP317 6//// T10501111 52012 FZRANO PNO $
KDAA - Fort Belvoir/Dav, Virginia, USA
Distance from station: ESE 15mi, 25km
Updated: Wed, 17-Jan-2018 9:56am EST
Clear
Clear
 Wind from NW
Wind: NW 18 mph , 30 km/h, Gust: 25 mph , 41 km/h
Temperature: 25°F , -4°C
Wind Chill: 11°F , -12°C
Dew Point: 10°F , -12°C
Humidity: 54%
Barometer: 30.42 inHg , 1030.1 hPa
Clouds: Clear
Visibility: 10 miles , 16 km
2018/01/17 14:56 KDAA 171456Z AUTO 31016G22KT 10SM CLR M04/M12 A3042 RMK AO2 PK WND 31026/31 SLP305 60000 T10451124 52010 $
 
KJYO - Leesburg/Godfrey, Virginia, USA
Distance from station: NNW 19mi, 30km
Updated: Wed, 17-Jan-2018 9:35am EST
Overcast
Overcast
 Wind from NNW
Wind: NNW 17 mph , 28 km/h, Gust: 24 mph , 39 km/h
Temperature: 23°F , -5°C
Wind Chill: 9°F , -13°C
Dew Point: 12°F , -11°C
Humidity: 63%
Barometer: 30.44 inHg , 1030.8 hPa
Clouds: Overcast
Visibility: 10 miles , 16 km
Cloud details: Partly cloudy 6500 ft
Overcast 7500 ft
2018/01/17 14:35 KJYO 171435Z AUTO 34015G21KT 10SM SCT065 OVC075 M05/M11 A3044 RMK AO2
KDCA - Washington/Natl, Washington D.C./Arlington, VA, USA
Distance from station: E 21mi, 34km
Updated: Wed, 17-Jan-2018 9:52am EST
Overcast
Overcast
 Wind from NW
Wind: NW 16 mph , 26 km/h
Temperature: 25°F , -4°C
Wind Chill: 12°F , -11°C
Dew Point: 12°F , -11°C
Humidity: 59%
Barometer: 30.42 inHg , 1030.1 hPa
Clouds: Overcast
Visibility: 10 miles , 16 km
Cloud details: Few Clouds 4500 ft
Overcast 5500 ft
2018/01/17 14:52 KDCA 171452Z 32014KT 10SM FEW045 OVC055 M04/M11 A3042 RMK AO2 SLP301 60000 T10391111 53010
KHWY - Warrenton, Virginia, USA
Distance from station: SW 23mi, 37km
Updated: Wed, 17-Jan-2018 9:35am EST
Overcast
Overcast
 Wind from NNW
Wind: NNW 14 mph , 22 km/h, Gust: 18 mph , 30 km/h
Temperature: 25°F , -4°C
Wind Chill: 13°F , -11°C
Dew Point: 9°F , -13°C
Humidity: 50%
Barometer: 30.40 inHg , 1029.5 hPa
Clouds: Overcast
Visibility: 10 miles , 16 km
Cloud details: Mostly cloudy 6500 ft
Overcast 7000 ft
2018/01/17 14:35 KHWY 171435Z AUTO 34012G16KT 10SM BKN065 OVC070 M04/M13 A3040 RMK AO2 T10371131
 
KNYG - Quantico Mcaf, Virginia, USA
Distance from station: SSE 23mi, 37km
Updated: Wed, 17-Jan-2018 8:56am EST
Overcast
Overcast
 Wind from N
Wind: N 12 mph , 19 km/h
Temperature: 27°F , -3°C
Wind Chill: 16°F , -9°C
Dew Point: 18°F , -8°C
Humidity: 69%
Barometer: 30.42 inHg , 1030.1 hPa
Clouds: Overcast
Visibility: 9 miles , 14 km
Cloud details: Partly cloudy 4000 ft
Overcast 6000 ft
2018/01/17 13:56 KNYG 171356Z 35010KT 9SM SCT040 OVC060 M03/M08 A3042 RMK SNE51 SLP303 RSC LSR10 P0000 T103311083
KRMN - Stafford Regnl, Virginia, USA
Distance from station: S 29mi, 47km
Updated: Wed, 17-Jan-2018 9:55am EST
Overcast
Overcast
 Wind from NNW
Wind: NNW 20 mph , 31 km/h, Gust: 25 mph , 41 km/h
Temperature: 27°F , -3°C
Wind Chill: 13°F , -11°C
Dew Point: 16°F , -9°C
Humidity: 64%
Barometer: 30.44 inHg , 1030.8 hPa
Clouds: Overcast
Visibility: 10 miles , 16 km
Cloud details: Partly cloudy 3100 ft
Overcast 3600 ft
2018/01/17 14:55 KRMN 171455Z AUTO 34017G22KT 10SM SCT031 OVC036 M03/M09 A3044 RMK AO2 T10341094
KBCB - Blacksburg, Virginia, USA
Distance from station: SW 191mi, 317km
Updated: Wed, 17-Jan-2018 9:55am EST
Light snow, Overcast
Light snow, Overcast
 Wind from W
Wind: W 5 mph , 7 km/h
Temperature: 18°F , -8°C
Wind Chill: 11°F , -12°C
Dew Point: 12°F , -11°C
Humidity: 79%
Barometer: 30.30 inHg , 1026.1 hPa
Summary: Light Snow
Clouds: Overcast
Visibility: 3 miles , 5 km
Cloud details: Partly cloudy 4000 ft
Mostly cloudy 7000 ft
Overcast 8000 ft
2018/01/17 14:55 KBCB 171455Z AUTO 27004KT 3SM -SN SCT040 BKN070 OVC080 M08/M11 A3030 RMK AO2 T10851111
 
KCJR - Culpeper, Virginia, USA
Distance from station: SW 31mi, 50km
Updated: Wed, 17-Jan-2018 9:55am EST
Overcast
Overcast
 Wind from N
Wind: N 13 mph , 20 km/h, Gust: 21 mph , 33 km/h
Temperature: 27°F , -3°C
Wind Chill: 16°F , -9°C
Dew Point: 9°F , -13°C
Humidity: 46%
Barometer: 30.41 inHg , 1029.8 hPa
Clouds: Overcast
Visibility: 10 miles , 16 km
Cloud details: Partly cloudy 6000 ft
Overcast 7000 ft
2018/01/17 14:55 KCJR 171455Z AUTO 36011G18KT 10SM SCT060 OVC070 M03/M13 A3041 RMK AO2 T10351127
KEZF - Fredericksb/Shan, Virginia, USA
Distance from station: S 38mi, 61km
Updated: Wed, 17-Jan-2018 9:55am EST
Clear
Clear
 Wind from N
Wind: N 15 mph , 24 km/h, Gust: 20 mph , 31 km/h
Temperature: 27°F , -3°C
Wind Chill: 15°F , -9°C
Dew Point: 18°F , -8°C
Humidity: 69%
Barometer: 30.40 inHg , 1029.5 hPa
Clouds: Clear
Visibility: 10 miles , 16 km
2018/01/17 14:55 KEZF 171455Z AUTO 36013G17KT 10SM CLR M03/M08 A3040 RMK AO2 T10301085
KCHO - Charlottesville, Virginia, USA
Distance from station: SW 73mi, 118km
Updated: Wed, 17-Jan-2018 9:53am EST
Light snow, Overcast
Light snow, Overcast
 Wind from NNW
Wind: NNW 5 mph , 7 km/h
Temperature: 28°F , -2°C
Wind Chill: 22°F , -6°C
Dew Point: 21°F , -6°C
Humidity: 74%
Barometer: 30.35 inHg , 1027.8 hPa
Summary: Light Snow
Clouds: Overcast
Visibility: 9 miles , 14 km
Cloud details: Mostly cloudy 4200 ft
Overcast 4900 ft
2018/01/17 14:53 KCHO 171453Z 33004KT 9SM -SN BKN042 OVC049 M02/M06 A3035 RMK AO2 SLP282 P0000 60000 T10171056 51013
 
KOKV - Winchester Rgnl, Virginia, USA
Distance from station: WNW 45mi, 72km
Updated: Wed, 17-Jan-2018 9:55am EST
Partly cloudy
Partly cloudy
 Wind from NNW
Wind: NNW 8 mph , 13 km/h
Temperature: 18°F , -8°C
Wind Chill: 8°F , -13°C
Dew Point: 7°F , -14°C
Humidity: 62%
Barometer: 30.45 inHg , 1031.2 hPa
Clouds: Partly cloudy
Visibility: 10 miles , 16 km
Cloud details: Partly cloudy 12000 ft
2018/01/17 14:55 KOKV 171455Z AUTO 34007KT 10SM SCT120 M08/M14 A3045 RMK AO2
KSHD - Staunton/Shenand, Virginia, USA
Distance from station: WSW 89mi, 143km
Updated: Wed, 17-Jan-2018 9:55am EST
Overcast
Overcast
 Wind from N
Wind: N 12 mph , 19 km/h, Gust: 20 mph , 31 km/h
Temperature: 23°F , -5°C
Wind Chill: 11°F , -12°C
Dew Point: 10°F , -12°C
Humidity: 58%
Barometer: 30.38 inHg , 1028.8 hPa
Clouds: Overcast
Visibility: 10 miles , 16 km
Cloud details: Partly cloudy 5500 ft
Overcast 6500 ft
2018/01/17 14:55 KSHD 171455Z AUTO 01010G17KT 10SM SCT055 OVC065 M05/M12 A3038 RMK AO2 T10551119
KRIC - Richmond, Virginia, USA
Distance from station: S 90mi, 145km
Updated: Wed, 17-Jan-2018 9:54am EST
Light snow, Mist, Overcast
Light snow, Mist, Overcast
 Wind from NNE
Wind: NNE 12 mph , 19 km/h
Temperature: 30°F , -1°C
Wind Chill: 20°F , -7°C
Dew Point: 27°F , -3°C
Humidity: 86%
Barometer: 30.35 inHg , 1027.8 hPa
Summary: Light snow, Mist
Clouds: Overcast
Visibility: 3/4 mile , 5 km
Cloud details: Overcast 700 ft
2018/01/17 14:54 KRIC 171454Z 02010KT 3/4SM R34/4500VP6000FT -SN BR OVC007 M01/M03 A3035 RMK AO2 CIG 007V011 SLP285 P0002 60006 T10111028 53010
 
KOMH - Orange, Virginia, USA
Distance from station: SW 52mi, 84km
Updated: Wed, 17-Jan-2018 9:55am EST
Overcast
Overcast
 Wind from NNE
Wind: NNE 8 mph , 13 km/h
Temperature: 25°F , -4°C
Wind Chill: 16°F , -9°C
Dew Point: 19°F , -7°C
Humidity: 80%
Barometer: 30.37 inHg , 1028.4 hPa
Clouds: Overcast
Visibility: 7 miles , 11 km
Cloud details: Partly cloudy 4200 ft
Overcast 5000 ft
2018/01/17 14:55 KOMH 171455Z AUTO 02007KT 7SM SCT042 OVC050 M04/M07 A3037 RMK AO2
KPHF - Newport News, Virginia, USA
Distance from station: SSE 127mi, 204km
Updated: Wed, 17-Jan-2018 9:54am EST
Haze, Overcast
Haze, Overcast
 Wind from NNE
Wind: NNE 10 mph , 17 km/h
Temperature: 36°F , 2°C
Wind Chill: 29°F , -2°C
Dew Point: 28°F , -2°C
Humidity: 75%
Barometer: 30.34 inHg , 1027.4 hPa
Summary: Haze
Clouds: Overcast
Visibility: 6 miles , 10 km
Cloud details: Overcast 1200 ft
2018/01/17 14:54 KPHF 171454Z 03009KT 6SM HZ OVC012 02/M02 A3034 RMK AO2 SLP272 T00171017 53013
KLYH - Lynchburg, Virginia, USA
Distance from station: SW 142mi, 228km
Updated: Wed, 17-Jan-2018 9:54am EST
Light snow, Mist, Overcast
Light snow, Mist, Overcast
 Wind from N
Wind: N 7 mph , 11 km/h
Temperature: 27°F , -3°C
Wind Chill: 19°F , -7°C
Dew Point: 25°F , -4°C
Humidity: 93%
Barometer: 30.29 inHg , 1025.7 hPa
Summary: Light snow, Mist
Clouds: Overcast
Visibility: 1 1/4 miles , 2 km
Cloud details: Overcast 1900 ft
2018/01/17 14:54 KLYH 171454Z 36006KT 1 1/4SM R04/4500V6000FT -SN BR OVC019 M03/M04 A3029 RMK AO2 SLP267 P0001 60007 T10281044 50001
 
KLUA - Luray, Virginia, USA
Distance from station: W 59mi, 95km
Updated: Wed, 17-Jan-2018 9:55am EST
Partly cloudy
Partly cloudy
 Wind from N
Wind: N 8 mph , 13 km/h
Temperature: 25°F , -4°C
Wind Chill: 16°F , -9°C
Dew Point: 9°F , -13°C
Humidity: 50%
Barometer: 30.40 inHg , 1029.5 hPa
Clouds: Partly cloudy
Visibility: 10 miles , 16 km
Cloud details: Partly cloudy 9500 ft
2018/01/17 14:55 KLUA 171455Z AUTO 35007KT 10SM SCT095 M04/M13 A3040 RMK AO2
KLKU - Louisa, Virginia, USA
Distance from station: SSW 63mi, 101km
Updated: Wed, 17-Jan-2018 9:55am EST
Light snow, Mist, Overcast
Light snow, Mist, Overcast
 Wind from N
Wind: N 9 mph , 15 km/h
Temperature: 23°F , -5°C
Wind Chill: 13°F , -11°C
Dew Point: 19°F , -7°C
Humidity: 86%
Barometer: 30.41 inHg , 1029.8 hPa
Summary: Light snow, Mist
Clouds: Overcast
Visibility: 1 3/4 miles , 5 km
Cloud details: Mostly cloudy 900 ft
Overcast 3700 ft
2018/01/17 14:55 KLKU 171455Z AUTO 01008KT 1 3/4SM -SN BR BKN009 OVC037 M05/M07 A3041 RMK AO2 T10451065
KXSA - Tappahannock, Virginia, USA
Distance from station: SSE 72mi, 115km
Updated: Wed, 17-Jan-2018 9:55am EST
Light snow, Overcast
Light snow, Overcast
 Wind from NNW
Wind: NNW 10 mph , 17 km/h, Gust: 18 mph , 30 km/h
Temperature: 28°F , -2°C
Wind Chill: 19°F , -7°C
Dew Point: 23°F , -5°C
Humidity: 80%
Barometer: 30.38 inHg , 1028.8 hPa
Summary: Light Snow
Clouds: Overcast
Visibility: 5 miles , 8 km
Cloud details: Partly cloudy 1100 ft
Mostly cloudy 2900 ft
Overcast 3500 ft
2018/01/17 14:55 KXSA 171455Z AUTO 33009G16KT 5SM -SN SCT011 BKN029 OVC035 M02/M05 A3038 RMK AO2 T10251047
 
KOFP - Richmond/Hanover, Virginia, USA
Distance from station: S 77mi, 124km
Updated: Wed, 17-Jan-2018 9:54am EST
Light snow, Mist, Overcast
Light snow, Mist, Overcast
 Wind from N
Wind: N 8 mph , 13 km/h
Temperature: 28°F , -2°C
Wind Chill: 20°F , -7°C
Dew Point: 25°F , -4°C
Humidity: 86%
Barometer: 30.38 inHg , 1028.8 hPa
Summary: Light snow, Mist
Clouds: Overcast
Visibility: 3/4 mile , 5 km
Cloud details: Few Clouds 800 ft
Overcast 1500 ft
2018/01/17 14:54 KOFP 171454Z AUTO 36007KT 320V030 3/4SM -SN BR FEW008 OVC015 M02/M04 A3038 RMK AO2 SLP287 P0002 60005 T10221039 53010
KVBW - BRIDGEWATER, VIRGINIA, USA
Distance from station: SW 89mi, 144km
Updated: Wed, 17-Jan-2018 9:55am EST
Overcast
Overcast
 Wind from N
Wind: N 12 mph , 19 km/h
Temperature: 23°F , -5°C
Wind Chill: 11°F , -12°C
Dew Point: 12°F , -11°C
Humidity: 63%
Barometer: 30.36 inHg , 1028.1 hPa
Clouds: Overcast
Visibility: 10 miles , 16 km
Cloud details: Partly cloudy 6000 ft
Overcast 7500 ft
2018/01/17 14:55 KVBW 171455Z AUTO 01010KT 10SM SCT060 OVC075 M05/M11 A3036 RMK AO2 T10551114
KFYJ - West Point, Virginia, USA
Distance from station: SSE 97mi, 156km
Updated: Wed, 17-Jan-2018 9:55am EST
Overcast
Overcast
 Wind from N
Wind: N 8 mph , 13 km/h
Temperature: 30°F , -1°C
Wind Chill: 22°F , -6°C
Dew Point: 27°F , -3°C
Humidity: 86%
Barometer: 30.38 inHg , 1028.8 hPa
Clouds: Overcast
Visibility: 4 miles , 6 km
Cloud details: Mostly cloudy 1300 ft
Overcast 2800 ft
2018/01/17 14:55 KFYJ 171455Z AUTO 35007KT 4SM BKN013 OVC028 M01/M03 A3038 RMK AO2 T10101030
 
KFCI - Richmond/Chester, Virginia, USA
Distance from station: S 98mi, 158km
Updated: Sun, 15-Oct-2017 11:56pm EDT
NOT Current
Clear
Clear
 Wind from SSW
Wind: SSW 7 mph , 11 km/h
Temperature: 72°F , 22°C
Dew Point: 66°F , 19°C
Humidity: 83%
Barometer: 29.93 inHg , 1013.5 hPa
Clouds: Clear
Visibility: 10 miles , 16 km
2017/10/16 03:56 KFCI 160356Z AUTO 20006KT 10SM CLR 22/19 A2993 RMK AO2 SLP150 T02170189 402720178
KTGI - TANGIER ISLAND, VIRGINIA USA
Distance from station: 104mi, 168km
Updated: Wed, 17-Jan-2018 9:23am EST
Overcast
Overcast
 Wind from NNW
Wind: NNW 23 mph , 37 km/h, Gust: 30 mph , 48 km/h
Temperature: 32°F , 0°C
Wind Chill: 19°F , -7°C
Dew Point: 30°F , -1°C
Humidity: 93%
Barometer: 30.34 inHg , 1027.4 hPa
Clouds: Overcast
Visibility: 10 miles , 16 km
Cloud details: Overcast 900 ft
2018/01/17 14:23 KTGI 171423Z AUTO 33020G26KT 10SM OVC009 00/M01 A3034 RMK AO1
KPTB - Petersburg, Virginia, USA
Distance from station: S 114mi, 184km
Updated: Wed, 17-Jan-2018 9:42am EST
Light snow, Overcast
Light snow, Overcast
 Wind from NNE
Wind: NNE 7 mph , 11 km/h
Temperature: 30°F , -1°C
Wind Chill: 23°F , -5°C
Dew Point: 28°F , -2°C
Humidity: 93%
Barometer: 30.34 inHg , 1027.4 hPa
Summary: Light Snow
Clouds: Overcast
Visibility: 1 3/4 miles , 5 km
Cloud details: Overcast 500 ft
2018/01/17 14:42 KPTB 171442Z AUTO 02006KT 1 3/4SM -SN OVC005 M01/M02 A3034 RMK AO2
 
KFVX - Farmville, Virginia, USA
Distance from station: SSW 115mi, 185km
Updated: Wed, 17-Jan-2018 9:55am EST
Light snow, Overcast
Light snow, Overcast
 Wind from NNE
Wind: NNE 12 mph , 19 km/h
Temperature: 32°F , 0°C
Wind Chill: 23°F , -5°C
Dew Point: 32°F , 0°C
Humidity: 100%
Barometer: 30.32 inHg , 1026.8 hPa
Summary: Light Snow
Clouds: Overcast
Visibility: 1 mile , 2 km
Cloud details: Mostly cloudy 500 ft
Overcast 1400 ft
2018/01/17 14:55 KFVX 171455Z AUTO 03010KT 1SM -SN BKN005 OVC014 00/00 A3032 RMK AO2 T10051005
KJGG - Williamsburg, Virginia, USA
Distance from station: SSE 116mi, 187km
Updated: Wed, 17-Jan-2018 9:55am EST
Partly cloudy
Partly cloudy
 Wind from calm
Wind: Calm
Temperature: 36°F , 2°C
Dew Point: 32°F , 0°C
Humidity: 87%
Barometer: 30.35 inHg , 1027.8 hPa
Clouds: Partly cloudy
Visibility: 2 1/2 miles , 2 km
Cloud details: Partly cloudy 1200 ft
2018/01/17 14:55 KJGG 171455Z AUTO 00000KT 2 1/2SM SCT012 02/00 A3035 RMK AO1
KMFV - Melfa/Accomack, Virginia, USA
Distance from station: SE 121mi, 195km
Updated: Wed, 17-Jan-2018 9:55am EST
Overcast
Overcast
 Wind from NNW
Wind: NNW 9 mph , 15 km/h, Gust: 25 mph , 41 km/h
Temperature: 34°F , 1°C
Wind Chill: 27°F , -3°C
Dew Point: 30°F , -1°C
Humidity: 87%
Barometer: 30.33 inHg , 1027.1 hPa
Clouds: Overcast
Visibility: 10 miles , 16 km
Cloud details: Overcast 900 ft
2018/01/17 14:55 KMFV 171455Z AUTO 34008G22KT 310V010 10SM OVC009 01/M01 A3033 RMK AO2 T00051008
 
KWAL - Wallops Island, Virginia, USA
Distance from station: ESE 122mi, 197km
Updated: Wed, 17-Jan-2018 9:54am EST
Haze, Overcast
Haze, Overcast
 Wind from NNW
Wind: NNW 10 mph , 17 km/h
Temperature: 36°F , 2°C
Wind Chill: 29°F , -2°C
Dew Point: 30°F , -1°C
Humidity: 81%
Barometer: 30.32 inHg , 1026.8 hPa
Summary: Haze
Clouds: Overcast
Visibility: 6 miles , 10 km
Cloud details: Overcast 1200 ft
2018/01/17 14:54 KWAL 171454Z AUTO 34009KT 6SM HZ OVC012 02/M01 A3032 RMK AO2 SLP265 T00171011 53011
KBKT - BLACKSTONE/FORT, VIRGINIA, USA
Distance from station: SSW 124mi, 200km
Updated: Wed, 17-Jan-2018 9:55am EST
Overcast
Overcast
 Wind from NNE
Wind: NNE 14 mph , 22 km/h, Gust: 17 mph , 28 km/h
Temperature: 30°F , -1°C
Wind Chill: 19°F , -7°C
Dew Point: 30°F , -1°C
Humidity: 100%
Barometer: 30.32 inHg , 1026.8 hPa
Clouds: Overcast
Visibility: 1/2 mile , 2 km
Cloud details: Overcast 500 ft
2018/01/17 14:55 KBKT 171455Z AUTO 03012G15KT 1/2SM OVC005 M01/M01 A3032 RMK AO1 P0001 60005 T10101010
KFAF - Ft Eustis/Felker, Virginia, USA
Distance from station: SSE 125mi, 202km
Updated: Wed, 17-Jan-2018 9:56am EST
Overcast
Overcast
 Wind from N
Wind: N 9 mph , 15 km/h
Temperature: 34°F , 1°C
Wind Chill: 27°F , -3°C
Dew Point: 28°F , -2°C
Humidity: 81%
Barometer: 30.31 inHg , 1026.4 hPa
Clouds: Overcast
Visibility: 10 miles , 16 km
Cloud details: Overcast 1300 ft
2018/01/17 14:56 KFAF 171456Z 01008KT 10SM OVC013 01/M02 A3031 RMK AO2A SLP267 T00121020 52013 $
 
KAKQ - Norfolk/Wakefld, Virginia, USA
Distance from station: S 129mi, 207km
Updated: Wed, 17-Jan-2018 9:54am EST
Mist, Overcast
Mist, Overcast
 Wind from varies
Wind: varies 6 mph , 9 km/h
Temperature: 34°F , 1°C
Wind Chill: 29°F , -2°C
Dew Point: 28°F , -2°C
Humidity: 81%
Barometer: 30.33 inHg , 1027.1 hPa
Summary: Mist
Clouds: Overcast
Visibility: 6 miles , 10 km
Cloud details: Overcast 1100 ft
2018/01/17 14:54 KAKQ 171454Z AUTO VRB05KT 6SM BR OVC011 01/M02 A3033 RMK AO2 SLP274 T00061017 53009
KLFI - Langley Afb/Hamp, Virginia, USA
Distance from station: SSE 134mi, 216km
Updated: Wed, 17-Jan-2018 9:56am EST
Overcast
Overcast
 Wind from NNE
Wind: NNE 13 mph , 20 km/h
Temperature: 34°F , 1°C
Wind Chill: 25°F , -4°C
Dew Point: 32°F , 0°C
Humidity: 93%
Barometer: 30.33 inHg , 1027.1 hPa
Clouds: Overcast
Visibility: 10 miles , 16 km
Cloud details: Overcast 1200 ft
2018/01/17 14:56 KLFI 171456Z 03011KT 10SM OVC012 01/00 A3033 RMK AO2A CIG 011 RWY26 SLP278 T00141005 53012
KLVL - LAWRENCEVILLE, VIRGINIA, USA
Distance from station: SSW 142mi, 229km
Updated: Wed, 17-Jan-2018 9:55am EST
Overcast
Overcast
 Wind from NNE
Wind: NNE 7 mph , 11 km/h
Temperature: 32°F , 0°C
Wind Chill: 25°F , -4°C
Dew Point: 30°F , -1°C
Humidity: 93%
Barometer: 30.31 inHg , 1026.4 hPa
Clouds: Overcast
Visibility: 1 1/4 miles , 2 km
Cloud details: Overcast 600 ft
2018/01/17 14:55 KLVL 171455Z AUTO 03006KT 1 1/4SM OVC006 00/M01 A3031 RMK AO1 P0001 60005
 
KHSP - Hot Springs/Inga, Virginia, USA
Distance from station: WSW 143mi, 230km
Updated: Wed, 17-Jan-2018 9:55am EST
Overcast
Overcast
 Wind from calm
Wind: Calm
Temperature: 12°F , -11°C
Dew Point: 9°F , -13°C
Humidity: 85%
Barometer: 30.15 inHg , 1021 hPa
Clouds: Overcast
Visibility: 10 miles , 16 km
Cloud details: Partly cloudy 3500 ft
Mostly cloudy 4200 ft
Overcast 4700 ft
2018/01/17 14:55 KHSP 171455Z AUTO 00000KT 10SM SCT035 BKN042 OVC047 M11/M13 A3015 RMK AO2 T11141135
KNGU - Norfolk Nas/Cham, Virginia, USA
Distance from station: SSE 146mi, 234km
Updated: Wed, 17-Jan-2018 8:59am EST
Haze, Overcast
Haze, Overcast
 Wind from N
Wind: N 10 mph , 17 km/h
Temperature: 36°F , 2°C
Wind Chill: 29°F , -2°C
Dew Point: 30°F , -1°C
Humidity: 81%
Barometer: 30.34 inHg , 1027.4 hPa
Summary: Haze
Clouds: Overcast
Visibility: 6 miles , 10 km
Cloud details: Mostly cloudy 1200 ft
Overcast 17000 ft
2018/01/17 13:59 KNGU 171359Z 01009KT 6SM HZ BKN012 OVC170 02/M01 A3034 RMK AO2 SLP272 I1003 T00171011
KEMV - Emporia, Virginia, USA
Distance from station: S 148mi, 237km
Updated: Wed, 17-Jan-2018 9:55am EST
Light snow, Overcast
Light snow, Overcast
 Wind from N
Wind: N 6 mph , 9 km/h
Temperature: 32°F , 0°C
Wind Chill: 26°F , -3°C
Dew Point: 32°F , 0°C
Humidity: 100%
Barometer: 30.34 inHg , 1027.4 hPa
Summary: Light Snow
Clouds: Overcast
Visibility: 4 miles , 6 km
Cloud details: Overcast 900 ft
2018/01/17 14:55 KEMV 171455Z AUTO 35005KT 4SM -SN OVC009 00/00 A3034 RMK AO2
 
KORF - Norfolk, Virginia, USA
Distance from station: SSE 148mi, 239km
Updated: Wed, 17-Jan-2018 9:51am EST
Mist, Overcast
Mist, Overcast
 Wind from NNE
Wind: NNE 14 mph , 22 km/h
Temperature: 36°F , 2°C
Wind Chill: 27°F , -3°C
Dew Point: 30°F , -1°C
Humidity: 81%
Barometer: 30.32 inHg , 1026.8 hPa
Summary: Mist
Clouds: Overcast
Visibility: 6 miles , 10 km
Cloud details: Overcast 1000 ft
2018/01/17 14:51 KORF 171451Z 02012KT 6SM BR OVC010 02/M01 A3032 RMK AO2 SLP267 T00171006 51012
KFKN - Franklin/J B Ros, Virginia, USA
Distance from station: SSE 149mi, 240km
Updated: Wed, 17-Jan-2018 9:55am EST
Mostly cloudy
Mostly cloudy
 Wind from NNE
Wind: NNE 5 mph , 7 km/h
Temperature: 36°F , 2°C
Wind Chill: 32°F , 0°C
Dew Point: 32°F , 0°C
Humidity: 87%
Barometer: 30.32 inHg , 1026.8 hPa
Clouds: Mostly cloudy
Visibility: 10 miles , 16 km
Cloud details: Mostly cloudy 1100 ft
Mostly cloudy 7000 ft
2018/01/17 14:55 KFKN 171455Z AUTO 03004KT 10SM BKN011 BKN070 02/00 A3032 RMK AO2 T00161005
KPVG - Norfolk/Hampton, Virginia, USA
Distance from station: SSE 150mi, 242km
Updated: Wed, 17-Jan-2018 9:56am EST
Overcast
Overcast
 Wind from NNE
Wind: NNE 12 mph , 19 km/h, Gust: 16 mph , 26 km/h
Temperature: 36°F , 2°C
Wind Chill: 28°F , -2°C
Dew Point: 32°F , 0°C
Humidity: 87%
Barometer: 30.33 inHg , 1027.1 hPa
Clouds: Overcast
Visibility: 10 miles , 16 km
Cloud details: Overcast 1200 ft
2018/01/17 14:56 KPVG 171456Z AUTO 03010G14KT 10SM OVC012 02/00 A3033 RMK AO2 SLP273 T00170000 51013 FZRANO
 
KAVC - South Hill/Meckl, Virginia, USA
Distance from station: SSW 151mi, 243km
Updated: Wed, 17-Jan-2018 9:55am EST
Overcast
Overcast
 Wind from NNE
Wind: NNE 6 mph , 9 km/h
Temperature: 32°F , 0°C
Wind Chill: 26°F , -3°C
Dew Point: 32°F , 0°C
Humidity: 100%
Barometer: 30.36 inHg , 1028.1 hPa
Clouds: Overcast
Visibility: 3/4 mile , 5 km
Cloud details: Overcast 300 ft
2018/01/17 14:55 KAVC 171455Z AUTO 02005KT 3/4SM OVC003 00/00 A3036 RMK AO2 60001 T10021002
KCXE - CHASE CITY, VIRGINIA, USA
Distance from station: SW 152mi, 245km
Updated: Wed, 17-Jan-2018 9:55am EST
Overcast
Overcast
 Wind from N
Wind: N 6 mph , 9 km/h
Temperature: 30°F , -1°C
Wind Chill: 24°F , -4°C
Dew Point: 30°F , -1°C
Humidity: 100%
Barometer: 30.31 inHg , 1026.4 hPa
Clouds: Overcast
Visibility: 1/2 mile , 2 km
Cloud details: Overcast 500 ft
2018/01/17 14:55 KCXE 171455Z AUTO 01005KT 1/2SM OVC005 M01/M01 A3031 RMK AO1 P0002 60005 T1
KSFQ - Suffolk, Virginia, USA
Distance from station: SSE 154mi, 248km
Updated: Wed, 17-Jan-2018 9:35am EST
Partly cloudy
Partly cloudy
 Wind from NNE
Wind: NNE 8 mph , 13 km/h
Temperature: 36°F , 2°C
Wind Chill: 30°F , -1°C
Dew Point: 32°F , 0°C
Humidity: 87%
Barometer: 30.33 inHg , 1027.1 hPa
Clouds: Partly cloudy
Visibility: 10 miles , 16 km
Cloud details: Partly cloudy 1000 ft
2018/01/17 14:35 KSFQ 171435Z AUTO 03007KT 10SM SCT010 02/00 A3033 RMK AO2 T00190000
 
KNTU - Oceana Nas/Souce, Virginia, USA
Distance from station: SSE 158mi, 254km
Updated: Wed, 17-Jan-2018 8:56am EST
Mist, Mostly cloudy
Mist, Mostly cloudy
 Wind from N
Wind: N 10 mph , 17 km/h
Temperature: 36°F , 2°C
Wind Chill: 29°F , -2°C
Dew Point: 30°F , -1°C
Humidity: 81%
Barometer: 30.32 inHg , 1026.8 hPa
Summary: Mist
Clouds: Mostly cloudy
Visibility: 5 miles , 8 km
Cloud details: Partly cloudy 1200 ft
Mostly cloudy 3000 ft
Mostly cloudy 22000 ft
2018/01/17 13:56 KNTU 171356Z 36009KT 5SM BR SCT012 BKN030 BKN220 02/M01 A3032 RMK AO2 SLP270 T00221011
KCPK - Chesapeake, Virginia, USA
Distance from station: SSE 160mi, 258km
Updated: Wed, 17-Jan-2018 9:55am EST
Overcast
Overcast
 Wind from N
Wind: N 9 mph , 15 km/h, Gust: 16 mph , 26 km/h
Temperature: 37°F , 3°C
Wind Chill: 30°F , -1°C
Dew Point: 32°F , 0°C
Humidity: 81%
Barometer: 30.33 inHg , 1027.1 hPa
Clouds: Overcast
Visibility: 10 miles , 16 km
Cloud details: Overcast 1300 ft
2018/01/17 14:55 KCPK 171455Z AUTO 36008G14KT 340V040 10SM OVC013 03/00 A3033 RMK AO2 T00281001
KNFE - Fentress Naval, Virginia, USA
Distance from station: SSE 162mi, 261km
Updated: Wed, 17-Jan-2018 9:56am EST
Overcast
Overcast
 Wind from N
Wind: N 14 mph , 22 km/h, Gust: 23 mph , 37 km/h
Temperature: 39°F , 4°C
Wind Chill: 31°F , -1°C
Dew Point: 32°F , 0°C
Humidity: 75%
Barometer: 30.32 inHg , 1026.8 hPa
Clouds: Overcast
Visibility: 8 miles , 13 km
Cloud details: Overcast 1100 ft
2018/01/17 14:56 KNFE 171456Z AUTO 36012G20KT 8SM OVC011 04/00 A3032 RMK AO2 SLP269 T00390000 53009
 
KROA - ROANOKE, VIRGINIA, USA
Distance from station: SW 173mi, 279km
Updated: Wed, 17-Jan-2018 9:54am EST
Light snow, Overcast
Light snow, Overcast
 Wind from NNW
Wind: NNW 9 mph , 15 km/h
Temperature: 21°F , -6°C
Wind Chill: 11°F , -12°C
Dew Point: 18°F , -8°C
Humidity: 86%
Barometer: 30.35 inHg , 1027.8 hPa
Summary: Light Snow
Clouds: Overcast
Visibility: 3/4 mile , 5 km
Cloud details: Overcast 1900 ft
2018/01/17 14:54 KROA 171454Z 33008KT 3/4SM -SN OVC019 M06/M08 A3035 RMK AO2 SFC VIS 1 1/2 SLP289 P0001 60007 T10561083 53004
KDAN - DANVILLE, VIRGINIA, USA
Distance from station: SW 187mi, 302km
Updated: Wed, 17-Jan-2018 9:53am EST
Snow, Freezing, Fog, Overcast
Snow, Freezing, Fog, Overcast
 Wind from N
Wind: N 6 mph , 9 km/h
Temperature: 28°F , -2°C
Wind Chill: 21°F , -6°C
Dew Point: 28°F , -2°C
Humidity: 100%
Barometer: 30.32 inHg , 1026.8 hPa
Summary: Snow, Freezing, Fog
Clouds: Overcast
Visibility: 1/2 mile , 2 km
Cloud details: Overcast 1000 ft
2018/01/17 14:53 KDAN 171453Z AUTO 35005KT 1/2SM SN FZFG VV010 M02/M02 A3032 RMK AO2 SLP267 P0004 60012 T10221022 53005
KMTV - MARTINSVILLE, VIRGINIA, USA
Distance from station: SW 207mi, 333km
Updated: Wed, 17-Jan-2018 9:55am EST
Light snow, Overcast
Light snow, Overcast
 Wind from N
Wind: N 9 mph , 15 km/h
Temperature: 23°F , -5°C
Wind Chill: 13°F , -11°C
Dew Point: 19°F , -7°C
Humidity: 86%
Barometer: 30.33 inHg , 1027.1 hPa
Summary: Light Snow
Clouds: Overcast
Visibility: 1 1/4 miles , 2 km
Cloud details: Partly cloudy 1000 ft
Overcast 2000 ft
2018/01/17 14:55 KMTV 171455Z AUTO 35008KT 1 1/4SM -SN SCT010 OVC020 M05/M07 A3033 RMK AO2 T10481067
 
KPSK - DUBLIN/NEW RIV, VIRGINIA, USA
Distance from station: SW 212mi, 342km
Updated: Wed, 17-Jan-2018 9:55am EST
Overcast
Overcast
 Wind from NNW
Wind: NNW 7 mph , 11 km/h
Temperature: 18°F , -8°C
Wind Chill: 9°F , -13°C
Dew Point: 10°F , -12°C
Humidity: 73%
Barometer: 30.29 inHg , 1025.7 hPa
Clouds: Overcast
Visibility: 10 miles , 16 km
Cloud details: Mostly cloudy 6500 ft
Mostly cloudy 8000 ft
Overcast 9000 ft
2018/01/17 14:55 KPSK 171455Z AUTO 33006KT 10SM BKN065 BKN080 OVC090 M08/M12 A3029 RMK AO2 T10801124
KHLX - HILLSVILLE/GALAX, VIRGINIA, USA
Distance from station: SW 233mi, 376km
Updated: Wed, 17-Jan-2018 9:55am EST
Light snow, Overcast
Light snow, Overcast
 Wind from N
Wind: N 9 mph , 15 km/h
Temperature: 16°F , -9°C
Wind Chill: 5°F , -15°C
Dew Point: 12°F , -11°C
Humidity: 86%
Barometer: 30.20 inHg , 1022.7 hPa
Summary: Light Snow
Clouds: Overcast
Visibility: 1 3/4 miles , 5 km
Cloud details: Partly cloudy 1100 ft
Partly cloudy 4300 ft
Overcast 4900 ft
2018/01/17 14:55 KHLX 171455Z AUTO 35008KT 1 3/4SM -SN SCT011 SCT043 OVC049 M09/M11 A3020 RMK AO2 60001 T10951112
KMKJ - MARION / WYTHEVI, VIRGINIA, USA
Distance from station: SW 252mi, 405km
Updated: Wed, 17-Jan-2018 9:55am EST
Overcast
Overcast
 Wind from WNW
Wind: WNW 8 mph , 13 km/h
Temperature: 16°F , -9°C
Wind Chill: 5°F , -15°C
Dew Point: 7°F , -14°C
Humidity: 67%
Barometer: 30.29 inHg , 1025.7 hPa
Clouds: Overcast
Visibility: 10 miles , 16 km
Cloud details: Partly cloudy 1000 ft
Mostly cloudy 1400 ft
Overcast 9000 ft
2018/01/17 14:55 KMKJ 171455Z AUTO 30007KT 10SM SCT010 BKN014 OVC090 M09/M14 A3029 RMK AO2 T10901136
 
KJFZ - RICHLANDS, VIRGINIA, USA
Distance from station: SW 268mi, 431km
Updated: Wed, 17-Jan-2018 9:55am EST
Light snow, Overcast
Light snow, Overcast
 Wind from NNW
Wind: NNW 6 mph , 9 km/h
Temperature: 7°F , -14°C
Wind Chill: -4°F , -20°C
Dew Point: 5°F , -15°C
Humidity: 92%
Barometer: 30.29 inHg , 1025.7 hPa
Summary: Light Snow
Clouds: Overcast
Visibility: 2 1/2 miles , 2 km
Cloud details: Overcast 800 ft
2018/01/17 14:55 KJFZ 171455Z AUTO 33005KT 2 1/2SM -SN OVC008 M14/M15 A3029 RMK AO2 T11371155
KVJI - ABINGDON, VIRGINIA, USA
Distance from station: SW 292mi, 470km
Updated: Wed, 17-Jan-2018 9:55am EST
Light snow, Overcast
Light snow, Overcast
 Wind from N
Wind: N 5 mph , 7 km/h
Temperature: 14°F , -10°C
Wind Chill: 6°F , -14°C
Dew Point: 9°F , -13°C
Humidity: 79%
Barometer: 30.32 inHg , 1026.8 hPa
Summary: Light Snow
Clouds: Overcast
Visibility: 4 miles , 6 km
Cloud details: Overcast 2100 ft
2018/01/17 14:55 KVJI 171455Z AUTO 35004KT 4SM -SN OVC021 M10/M13 A3032 RMK AO2 T10981130
KLNP - WISE/LONESOME PI, VIRGINIA, USA
Distance from station: WSW 306mi, 492km
Updated: Wed, 17-Jan-2018 9:55am EST
Light snow, Overcast
Light snow, Overcast
 Wind from NNW
Wind: NNW 6 mph , 9 km/h
Temperature: 5°F , -15°C
Wind Chill: -6°F , -21°C
Dew Point: 1°F , -17°C
Humidity: 85%
Barometer: 30.32 inHg , 1026.8 hPa
Summary: Light Snow
Clouds: Overcast
Visibility: 4 miles , 6 km
Cloud details: Overcast 600 ft
2018/01/17 14:55 KLNP 171455Z AUTO 34005KT 4SM -SN OVC006 M15/M17 A3032 RMK AO2